sensor_id;sensor_type;location;lat;lon;timestamp;P1;durP1;ratioP1;P2;durP2;ratioP2
19998;SDS011;10160;50.926;4.374;2023-04-05T00:01:23;24.30;;;10.87;;
19998;SDS011;10160;50.926;4.374;2023-04-05T00:03:51;22.37;;;11.43;;
19998;SDS011;10160;50.926;4.374;2023-04-05T00:06:18;18.27;;;10.80;;
19998;SDS011;10160;50.926;4.374;2023-04-05T00:09:11;18.93;;;10.67;;
19998;SDS011;10160;50.926;4.374;2023-04-05T00:11:37;21.60;;;10.57;;
19998;SDS011;10160;50.926;4.374;2023-04-05T00:14:02;18.67;;;11.10;;
19998;SDS011;10160;50.926;4.374;2023-04-05T00:16:28;17.07;;;10.10;;
19998;SDS011;10160;50.926;4.374;2023-04-05T00:18:55;24.17;;;11.20;;
19998;SDS011;10160;50.926;4.374;2023-04-05T00:21:22;19.47;;;11.00;;
19998;SDS011;10160;50.926;4.374;2023-04-05T00:26:15;21.07;;;10.97;;
19998;SDS011;10160;50.926;4.374;2023-04-05T00:28:42;16.83;;;10.03;;
19998;SDS011;10160;50.926;4.374;2023-04-05T00:31:07;21.73;;;10.63;;
19998;SDS011;10160;50.926;4.374;2023-04-05T00:33:33;17.30;;;9.80;;
19998;SDS011;10160;50.926;4.374;2023-04-05T00:36:11;20.07;;;11.17;;
19998;SDS011;10160;50.926;4.374;2023-04-05T00:38:39;18.60;;;10.90;;
19998;SDS011;10160;50.926;4.374;2023-04-05T00:41:05;22.33;;;10.67;;
19998;SDS011;10160;50.926;4.374;2023-04-05T00:43:31;18.13;;;10.57;;
19998;SDS011;10160;50.926;4.374;2023-04-05T00:45:57;21.97;;;10.67;;
19998;SDS011;10160;50.926;4.374;2023-04-05T00:48:23;19.50;;;10.57;;
19998;SDS011;10160;50.926;4.374;2023-04-05T00:50:49;20.80;;;9.77;;
19998;SDS011;10160;50.926;4.374;2023-04-05T00:53:16;21.77;;;10.20;;
19998;SDS011;10160;50.926;4.374;2023-04-05T00:55:43;20.97;;;10.43;;
19998;SDS011;10160;50.926;4.374;2023-04-05T00:58:13;16.73;;;10.60;;
19998;SDS011;10160;50.926;4.374;2023-04-05T01:00:42;21.33;;;11.20;;
19998;SDS011;10160;50.926;4.374;2023-04-05T01:03:15;17.60;;;10.03;;
19998;SDS011;10160;50.926;4.374;2023-04-05T01:10:57;22.33;;;10.47;;
19998;SDS011;10160;50.926;4.374;2023-04-05T01:13:30;20.10;;;10.23;;
19998;SDS011;10160;50.926;4.374;2023-04-05T01:15:56;20.00;;;11.57;;
19998;SDS011;10160;50.926;4.374;2023-04-05T01:18:22;19.63;;;10.37;;
19998;SDS011;10160;50.926;4.374;2023-04-05T01:20:51;25.67;;;10.23;;
19998;SDS011;10160;50.926;4.374;2023-04-05T01:23:35;20.73;;;11.17;;
19998;SDS011;10160;50.926;4.374;2023-04-05T01:32:06;16.53;;;10.33;;
19998;SDS011;10160;50.926;4.374;2023-04-05T01:37:40;24.63;;;11.70;;
19998;SDS011;10160;50.926;4.374;2023-04-05T01:40:07;20.37;;;11.63;;
19998;SDS011;10160;50.926;4.374;2023-04-05T01:42:34;23.10;;;11.50;;
19998;SDS011;10160;50.926;4.374;2023-04-05T01:45:00;19.97;;;10.47;;
19998;SDS011;10160;50.926;4.374;2023-04-05T01:47:26;23.60;;;11.07;;
19998;SDS011;10160;50.926;4.374;2023-04-05T01:49:51;22.77;;;11.60;;
19998;SDS011;10160;50.926;4.374;2023-04-05T01:52:17;22.60;;;11.77;;
19998;SDS011;10160;50.926;4.374;2023-04-05T01:54:42;20.67;;;12.47;;
19998;SDS011;10160;50.926;4.374;2023-04-05T01:57:08;18.83;;;10.53;;
19998;SDS011;10160;50.926;4.374;2023-04-05T01:59:34;22.97;;;11.07;;
19998;SDS011;10160;50.926;4.374;2023-04-05T02:02:00;24.67;;;11.47;;
19998;SDS011;10160;50.926;4.374;2023-04-05T02:04:26;23.93;;;12.27;;
19998;SDS011;10160;50.926;4.374;2023-04-05T02:06:51;25.63;;;12.60;;
19998;SDS011;10160;50.926;4.374;2023-04-05T02:09:17;24.03;;;12.67;;
19998;SDS011;10160;50.926;4.374;2023-04-05T02:11:43;19.83;;;11.27;;
19998;SDS011;10160;50.926;4.374;2023-04-05T02:14:08;21.47;;;10.93;;
19998;SDS011;10160;50.926;4.374;2023-04-05T02:16:34;22.03;;;12.47;;
19998;SDS011;10160;50.926;4.374;2023-04-05T02:19:00;19.37;;;11.30;;
19998;SDS011;10160;50.926;4.374;2023-04-05T02:21:26;21.27;;;11.03;;
19998;SDS011;10160;50.926;4.374;2023-04-05T02:23:52;23.40;;;12.23;;
19998;SDS011;10160;50.926;4.374;2023-04-05T02:26:18;25.87;;;12.20;;
19998;SDS011;10160;50.926;4.374;2023-04-05T02:28:45;25.03;;;11.90;;
19998;SDS011;10160;50.926;4.374;2023-04-05T02:31:11;20.63;;;11.80;;
19998;SDS011;10160;50.926;4.374;2023-04-05T02:33:38;25.90;;;13.17;;
19998;SDS011;10160;50.926;4.374;2023-04-05T02:36:04;27.90;;;13.37;;
19998;SDS011;10160;50.926;4.374;2023-04-05T02:38:32;25.13;;;13.33;;
19998;SDS011;10160;50.926;4.374;2023-04-05T02:40:58;24.03;;;12.63;;
19998;SDS011;10160;50.926;4.374;2023-04-05T02:43:23;20.83;;;12.10;;
19998;SDS011;10160;50.926;4.374;2023-04-05T02:45:50;25.00;;;12.27;;
19998;SDS011;10160;50.926;4.374;2023-04-05T02:48:16;21.97;;;12.53;;
19998;SDS011;10160;50.926;4.374;2023-04-05T02:50:45;24.03;;;11.97;;
19998;SDS011;10160;50.926;4.374;2023-04-05T02:53:14;24.07;;;12.17;;
19998;SDS011;10160;50.926;4.374;2023-04-05T02:55:41;24.83;;;12.50;;
19998;SDS011;10160;50.926;4.374;2023-04-05T02:58:07;24.10;;;12.67;;
19998;SDS011;10160;50.926;4.374;2023-04-05T03:00:33;26.63;;;12.63;;
19998;SDS011;10160;50.926;4.374;2023-04-05T03:02:59;25.10;;;13.67;;
19998;SDS011;10160;50.926;4.374;2023-04-05T03:05:24;26.40;;;14.53;;
19998;SDS011;10160;50.926;4.374;2023-04-05T03:07:51;24.70;;;13.60;;
19998;SDS011;10160;50.926;4.374;2023-04-05T03:10:17;28.03;;;14.40;;
19998;SDS011;10160;50.926;4.374;2023-04-05T03:12:46;27.37;;;12.90;;
19998;SDS011;10160;50.926;4.374;2023-04-05T03:15:12;28.10;;;13.80;;
19998;SDS011;10160;50.926;4.374;2023-04-05T03:17:38;25.37;;;14.13;;
19998;SDS011;10160;50.926;4.374;2023-04-05T03:20:04;22.93;;;13.17;;
19998;SDS011;10160;50.926;4.374;2023-04-05T03:22:31;24.63;;;14.13;;
19998;SDS011;10160;50.926;4.374;2023-04-05T03:24:57;25.57;;;14.23;;
19998;SDS011;10160;50.926;4.374;2023-04-05T03:27:24;29.47;;;13.90;;
19998;SDS011;10160;50.926;4.374;2023-04-05T03:29:50;27.00;;;14.53;;
19998;SDS011;10160;50.926;4.374;2023-04-05T03:32:15;26.27;;;13.23;;
19998;SDS011;10160;50.926;4.374;2023-04-05T03:34:41;22.47;;;13.93;;
19998;SDS011;10160;50.926;4.374;2023-04-05T03:37:07;25.73;;;14.37;;
19998;SDS011;10160;50.926;4.374;2023-04-05T03:39:33;25.27;;;14.90;;
19998;SDS011;10160;50.926;4.374;2023-04-05T03:41:59;29.47;;;13.83;;
19998;SDS011;10160;50.926;4.374;2023-04-05T03:44:25;30.07;;;14.60;;
19998;SDS011;10160;50.926;4.374;2023-04-05T03:46:51;25.40;;;13.63;;
19998;SDS011;10160;50.926;4.374;2023-04-05T03:49:17;30.73;;;13.97;;
19998;SDS011;10160;50.926;4.374;2023-04-05T03:51:43;31.03;;;15.60;;
19998;SDS011;10160;50.926;4.374;2023-04-05T03:54:10;26.53;;;14.30;;
19998;SDS011;10160;50.926;4.374;2023-04-05T03:56:36;25.93;;;14.80;;
19998;SDS011;10160;50.926;4.374;2023-04-05T03:59:02;28.07;;;14.40;;
19998;SDS011;10160;50.926;4.374;2023-04-05T04:01:27;27.90;;;14.47;;
19998;SDS011;10160;50.926;4.374;2023-04-05T04:03:53;26.20;;;14.30;;
19998;SDS011;10160;50.926;4.374;2023-04-05T04:06:19;28.67;;;15.10;;
19998;SDS011;10160;50.926;4.374;2023-04-05T04:08:45;35.47;;;14.60;;
19998;SDS011;10160;50.926;4.374;2023-04-05T04:11:11;27.33;;;14.20;;
19998;SDS011;10160;50.926;4.374;2023-04-05T04:13:37;30.10;;;14.63;;
19998;SDS011;10160;50.926;4.374;2023-04-05T04:16:02;30.20;;;15.07;;
19998;SDS011;10160;50.926;4.374;2023-04-05T04:18:28;27.70;;;14.27;;
19998;SDS011;10160;50.926;4.374;2023-04-05T04:20:54;24.47;;;14.40;;
19998;SDS011;10160;50.926;4.374;2023-04-05T04:23:20;20.40;;;13.70;;
19998;SDS011;10160;50.926;4.374;2023-04-05T04:25:48;26.33;;;14.20;;
19998;SDS011;10160;50.926;4.374;2023-04-05T04:28:18;28.00;;;15.20;;
19998;SDS011;10160;50.926;4.374;2023-04-05T04:30:44;29.00;;;14.70;;
19998;SDS011;10160;50.926;4.374;2023-04-05T04:33:10;28.67;;;15.03;;
19998;SDS011;10160;50.926;4.374;2023-04-05T04:35:37;26.50;;;14.87;;
19998;SDS011;10160;50.926;4.374;2023-04-05T04:38:03;27.73;;;16.50;;
19998;SDS011;10160;50.926;4.374;2023-04-05T04:40:30;28.83;;;15.47;;
19998;SDS011;10160;50.926;4.374;2023-04-05T04:43:08;30.13;;;15.67;;
19998;SDS011;10160;50.926;4.374;2023-04-05T04:45:38;28.80;;;15.77;;
19998;SDS011;10160;50.926;4.374;2023-04-05T04:48:05;25.20;;;16.03;;
19998;SDS011;10160;50.926;4.374;2023-04-05T04:50:32;31.40;;;16.10;;
19998;SDS011;10160;50.926;4.374;2023-04-05T04:52:58;29.77;;;16.47;;
19998;SDS011;10160;50.926;4.374;2023-04-05T04:55:24;27.00;;;16.20;;
19998;SDS011;10160;50.926;4.374;2023-04-05T04:57:51;29.40;;;16.47;;
19998;SDS011;10160;50.926;4.374;2023-04-05T05:00:18;29.90;;;16.20;;
19998;SDS011;10160;50.926;4.374;2023-04-05T05:02:44;31.83;;;17.10;;
19998;SDS011;10160;50.926;4.374;2023-04-05T05:05:11;29.17;;;17.00;;
19998;SDS011;10160;50.926;4.374;2023-04-05T05:07:37;30.27;;;17.17;;
19998;SDS011;10160;50.926;4.374;2023-04-05T05:10:06;31.23;;;17.40;;
19998;SDS011;10160;50.926;4.374;2023-04-05T05:12:32;33.23;;;17.33;;
19998;SDS011;10160;50.926;4.374;2023-04-05T05:14:58;38.00;;;18.30;;
19998;SDS011;10160;50.926;4.374;2023-04-05T05:17:23;29.87;;;17.27;;
19998;SDS011;10160;50.926;4.374;2023-04-05T05:19:49;30.77;;;17.27;;
19998;SDS011;10160;50.926;4.374;2023-04-05T05:22:15;30.80;;;17.50;;
19998;SDS011;10160;50.926;4.374;2023-04-05T05:24:42;31.43;;;17.90;;
19998;SDS011;10160;50.926;4.374;2023-04-05T05:27:08;30.83;;;17.20;;
19998;SDS011;10160;50.926;4.374;2023-04-05T05:29:34;30.10;;;18.37;;
19998;SDS011;10160;50.926;4.374;2023-04-05T05:32:00;30.37;;;16.60;;
19998;SDS011;10160;50.926;4.374;2023-04-05T05:34:25;36.17;;;16.70;;
19998;SDS011;10160;50.926;4.374;2023-04-05T05:36:52;29.23;;;17.07;;
19998;SDS011;10160;50.926;4.374;2023-04-05T05:39:19;29.07;;;15.30;;
19998;SDS011;10160;50.926;4.374;2023-04-05T05:41:44;28.80;;;16.13;;
19998;SDS011;10160;50.926;4.374;2023-04-05T05:44:10;38.10;;;16.83;;
19998;SDS011;10160;50.926;4.374;2023-04-05T05:46:36;30.63;;;16.43;;
19998;SDS011;10160;50.926;4.374;2023-04-05T05:49:02;39.03;;;15.87;;
19998;SDS011;10160;50.926;4.374;2023-04-05T05:51:27;28.83;;;15.50;;
19998;SDS011;10160;50.926;4.374;2023-04-05T05:53:53;39.00;;;16.00;;
19998;SDS011;10160;50.926;4.374;2023-04-05T05:56:19;30.80;;;15.50;;
19998;SDS011;10160;50.926;4.374;2023-04-05T05:58:44;33.07;;;17.63;;
19998;SDS011;10160;50.926;4.374;2023-04-05T06:01:10;33.07;;;16.30;;
19998;SDS011;10160;50.926;4.374;2023-04-05T06:03:36;29.23;;;16.23;;
19998;SDS011;10160;50.926;4.374;2023-04-05T06:06:02;34.33;;;16.17;;
19998;SDS011;10160;50.926;4.374;2023-04-05T06:08:30;29.77;;;16.40;;
19998;SDS011;10160;50.926;4.374;2023-04-05T06:10:56;32.90;;;15.37;;
19998;SDS011;10160;50.926;4.374;2023-04-05T06:13:22;27.73;;;14.90;;
19998;SDS011;10160;50.926;4.374;2023-04-05T06:15:48;30.03;;;14.40;;
19998;SDS011;10160;50.926;4.374;2023-04-05T06:18:14;28.63;;;15.70;;
19998;SDS011;10160;50.926;4.374;2023-04-05T06:20:41;30.37;;;14.43;;
19998;SDS011;10160;50.926;4.374;2023-04-05T06:23:08;32.23;;;14.83;;
19998;SDS011;10160;50.926;4.374;2023-04-05T06:25:35;25.30;;;13.90;;
19998;SDS011;10160;50.926;4.374;2023-04-05T06:28:02;32.23;;;15.10;;
19998;SDS011;10160;50.926;4.374;2023-04-05T06:30:28;26.43;;;14.50;;
19998;SDS011;10160;50.926;4.374;2023-04-05T06:32:55;29.40;;;14.47;;
19998;SDS011;10160;50.926;4.374;2023-04-05T06:35:21;31.87;;;14.17;;
19998;SDS011;10160;50.926;4.374;2023-04-05T06:37:47;33.03;;;14.80;;
19998;SDS011;10160;50.926;4.374;2023-04-05T06:40:13;28.73;;;13.97;;
19998;SDS011;10160;50.926;4.374;2023-04-05T06:42:39;27.20;;;14.77;;
19998;SDS011;10160;50.926;4.374;2023-04-05T06:45:05;31.93;;;15.40;;
19998;SDS011;10160;50.926;4.374;2023-04-05T06:47:34;31.37;;;15.53;;
19998;SDS011;10160;50.926;4.374;2023-04-05T06:50:01;22.93;;;14.60;;
19998;SDS011;10160;50.926;4.374;2023-04-05T06:52:31;23.97;;;14.87;;
19998;SDS011;10160;50.926;4.374;2023-04-05T06:54:57;30.40;;;14.60;;
19998;SDS011;10160;50.926;4.374;2023-04-05T06:57:23;30.83;;;15.40;;
19998;SDS011;10160;50.926;4.374;2023-04-05T06:59:49;28.77;;;15.90;;
19998;SDS011;10160;50.926;4.374;2023-04-05T07:02:16;29.80;;;14.80;;
19998;SDS011;10160;50.926;4.374;2023-04-05T07:04:42;26.50;;;14.57;;
19998;SDS011;10160;50.926;4.374;2023-04-05T07:07:08;29.53;;;13.93;;
19998;SDS011;10160;50.926;4.374;2023-04-05T07:09:34;28.43;;;14.67;;
19998;SDS011;10160;50.926;4.374;2023-04-05T07:12:01;26.57;;;13.90;;
19998;SDS011;10160;50.926;4.374;2023-04-05T07:14:28;30.83;;;15.07;;
19998;SDS011;10160;50.926;4.374;2023-04-05T07:16:55;27.80;;;12.70;;
19998;SDS011;10160;50.926;4.374;2023-04-05T07:19:21;24.33;;;12.43;;
19998;SDS011;10160;50.926;4.374;2023-04-05T07:21:47;21.47;;;11.20;;
19998;SDS011;10160;50.926;4.374;2023-04-05T07:24:12;20.93;;;10.63;;
19998;SDS011;10160;50.926;4.374;2023-04-05T07:26:38;23.20;;;11.50;;
19998;SDS011;10160;50.926;4.374;2023-04-05T07:29:04;26.93;;;11.33;;
19998;SDS011;10160;50.926;4.374;2023-04-05T07:31:32;24.13;;;11.30;;
19998;SDS011;10160;50.926;4.374;2023-04-05T07:33:58;18.67;;;10.50;;
19998;SDS011;10160;50.926;4.374;2023-04-05T07:36:25;23.07;;;10.80;;
19998;SDS011;10160;50.926;4.374;2023-04-05T07:38:55;24.70;;;10.77;;
19998;SDS011;10160;50.926;4.374;2023-04-05T07:41:21;20.97;;;10.50;;
19998;SDS011;10160;50.926;4.374;2023-04-05T07:43:47;20.20;;;11.00;;
19998;SDS011;10160;50.926;4.374;2023-04-05T07:46:13;21.87;;;10.53;;
19998;SDS011;10160;50.926;4.374;2023-04-05T07:48:40;19.63;;;10.43;;
19998;SDS011;10160;50.926;4.374;2023-04-05T07:51:06;22.13;;;10.80;;
19998;SDS011;10160;50.926;4.374;2023-04-05T07:53:33;24.97;;;10.40;;
19998;SDS011;10160;50.926;4.374;2023-04-05T07:56:02;24.23;;;11.10;;
19998;SDS011;10160;50.926;4.374;2023-04-05T07:58:29;21.30;;;9.90;;
19998;SDS011;10160;50.926;4.374;2023-04-05T08:00:58;21.90;;;10.33;;
19998;SDS011;10160;50.926;4.374;2023-04-05T08:03:25;19.80;;;10.83;;
19998;SDS011;10160;50.926;4.374;2023-04-05T08:05:51;18.83;;;8.57;;
19998;SDS011;10160;50.926;4.374;2023-04-05T08:08:17;19.60;;;8.80;;
19998;SDS011;10160;50.926;4.374;2023-04-05T08:10:42;15.63;;;8.00;;
19998;SDS011;10160;50.926;4.374;2023-04-05T08:13:08;17.43;;;8.07;;
19998;SDS011;10160;50.926;4.374;2023-04-05T08:15:34;14.50;;;7.27;;
19998;SDS011;10160;50.926;4.374;2023-04-05T08:18:00;15.63;;;7.33;;
19998;SDS011;10160;50.926;4.374;2023-04-05T08:20:26;16.93;;;7.47;;
19998;SDS011;10160;50.926;4.374;2023-04-05T08:22:51;12.60;;;6.57;;
19998;SDS011;10160;50.926;4.374;2023-04-05T08:25:17;12.17;;;7.30;;
19998;SDS011;10160;50.926;4.374;2023-04-05T08:27:43;16.27;;;7.43;;
19998;SDS011;10160;50.926;4.374;2023-04-05T08:30:08;17.90;;;7.30;;
19998;SDS011;10160;50.926;4.374;2023-04-05T08:32:34;15.97;;;8.10;;
19998;SDS011;10160;50.926;4.374;2023-04-05T08:35:00;14.77;;;6.87;;
19998;SDS011;10160;50.926;4.374;2023-04-05T08:37:26;14.17;;;6.37;;
19998;SDS011;10160;50.926;4.374;2023-04-05T08:39:52;15.80;;;7.50;;
19998;SDS011;10160;50.926;4.374;2023-04-05T08:42:25;16.40;;;7.40;;
19998;SDS011;10160;50.926;4.374;2023-04-05T08:45:16;14.97;;;7.30;;
19998;SDS011;10160;50.926;4.374;2023-04-05T08:47:43;15.67;;;7.43;;
19998;SDS011;10160;50.926;4.374;2023-04-05T08:50:11;17.03;;;7.83;;
19998;SDS011;10160;50.926;4.374;2023-04-05T08:52:37;13.73;;;7.80;;
19998;SDS011;10160;50.926;4.374;2023-04-05T08:55:07;14.73;;;6.87;;
19998;SDS011;10160;50.926;4.374;2023-04-05T08:57:33;14.67;;;6.90;;
19998;SDS011;10160;50.926;4.374;2023-04-05T09:00:03;15.23;;;6.67;;
19998;SDS011;10160;50.926;4.374;2023-04-05T09:02:34;15.67;;;7.67;;
19998;SDS011;10160;50.926;4.374;2023-04-05T09:05:01;12.67;;;6.67;;
19998;SDS011;10160;50.926;4.374;2023-04-05T09:07:29;12.97;;;6.97;;
19998;SDS011;10160;50.926;4.374;2023-04-05T09:09:55;14.33;;;7.27;;
19998;SDS011;10160;50.926;4.374;2023-04-05T09:12:23;26.43;;;9.00;;
19998;SDS011;10160;50.926;4.374;2023-04-05T09:14:50;24.23;;;8.93;;
19998;SDS011;10160;50.926;4.374;2023-04-05T09:17:17;23.77;;;9.67;;
19998;SDS011;10160;50.926;4.374;2023-04-05T09:19:45;24.90;;;9.70;;
19998;SDS011;10160;50.926;4.374;2023-04-05T09:22:14;24.83;;;8.70;;
19998;SDS011;10160;50.926;4.374;2023-04-05T09:24:43;22.43;;;8.93;;
19998;SDS011;10160;50.926;4.374;2023-04-05T09:27:11;21.33;;;9.57;;
19998;SDS011;10160;50.926;4.374;2023-04-05T09:29:38;21.63;;;9.60;;
19998;SDS011;10160;50.926;4.374;2023-04-05T09:32:11;21.33;;;9.07;;
19998;SDS011;10160;50.926;4.374;2023-04-05T09:34:38;20.70;;;9.20;;
19998;SDS011;10160;50.926;4.374;2023-04-05T09:37:12;19.73;;;9.47;;
19998;SDS011;10160;50.926;4.374;2023-04-05T09:39:42;22.27;;;9.77;;
19998;SDS011;10160;50.926;4.374;2023-04-05T09:42:09;19.27;;;9.03;;
19998;SDS011;10160;50.926;4.374;2023-04-05T09:47:27;23.13;;;9.93;;
19998;SDS011;10160;50.926;4.374;2023-04-05T09:49:58;25.10;;;9.57;;
19998;SDS011;10160;50.926;4.374;2023-04-05T09:52:25;17.13;;;8.97;;
19998;SDS011;10160;50.926;4.374;2023-04-05T09:54:54;18.13;;;8.60;;
19998;SDS011;10160;50.926;4.374;2023-04-05T09:57:32;19.87;;;8.67;;
19998;SDS011;10160;50.926;4.374;2023-04-05T09:59:58;16.50;;;8.98;;
19998;SDS011;10160;50.926;4.374;2023-04-05T10:02:24;20.33;;;9.07;;
19998;SDS011;10160;50.926;4.374;2023-04-05T10:05:04;16.10;;;8.48;;
19998;SDS011;10160;50.926;4.374;2023-04-05T10:07:31;17.10;;;8.68;;
19998;SDS011;10160;50.926;4.374;2023-04-05T10:09:57;23.58;;;8.52;;
19998;SDS011;10160;50.926;4.374;2023-04-05T10:12:24;16.25;;;9.07;;
19998;SDS011;10160;50.926;4.374;2023-04-05T10:14:52;22.17;;;9.15;;
19998;SDS011;10160;50.926;4.374;2023-04-05T10:17:27;17.85;;;8.95;;
19998;SDS011;10160;50.926;4.374;2023-04-05T10:20:21;15.70;;;8.23;;
19998;SDS011;10160;50.926;4.374;2023-04-05T10:22:56;18.17;;;8.10;;
19998;SDS011;10160;50.926;4.374;2023-04-05T10:33:43;14.27;;;8.70;;
19998;SDS011;10160;50.926;4.374;2023-04-05T10:41:15;15.77;;;9.40;;
19998;SDS011;10160;50.926;4.374;2023-04-05T10:43:41;19.58;;;9.68;;
19998;SDS011;10160;50.926;4.374;2023-04-05T10:46:10;18.42;;;9.52;;
19998;SDS011;10160;50.926;4.374;2023-04-05T10:51:17;15.52;;;8.80;;
19998;SDS011;10160;50.926;4.374;2023-04-05T10:53:47;14.20;;;8.23;;
19998;SDS011;10160;50.926;4.374;2023-04-05T10:56:15;19.40;;;8.95;;
19998;SDS011;10160;50.926;4.374;2023-04-05T10:58:42;17.10;;;8.05;;
19998;SDS011;10160;50.926;4.374;2023-04-05T11:01:08;15.48;;;8.88;;
19998;SDS011;10160;50.926;4.374;2023-04-05T11:03:44;20.50;;;8.98;;
19998;SDS011;10160;50.926;4.374;2023-04-05T11:11:37;21.48;;;9.40;;
19998;SDS011;10160;50.926;4.374;2023-04-05T11:14:15;17.55;;;9.20;;
19998;SDS011;10160;50.926;4.374;2023-04-05T11:16:44;16.65;;;9.43;;
19998;SDS011;10160;50.926;4.374;2023-04-05T11:19:11;16.60;;;9.00;;
19998;SDS011;10160;50.926;4.374;2023-04-05T11:21:37;19.73;;;9.52;;
19998;SDS011;10160;50.926;4.374;2023-04-05T11:24:03;17.98;;;9.48;;
19998;SDS011;10160;50.926;4.374;2023-04-05T11:29:04;16.38;;;8.23;;
19998;SDS011;10160;50.926;4.374;2023-04-05T11:31:30;16.85;;;9.05;;
19998;SDS011;10160;50.926;4.374;2023-04-05T11:33:57;15.68;;;8.98;;
19998;SDS011;10160;50.926;4.374;2023-04-05T11:36:39;16.75;;;8.60;;
19998;SDS011;10160;50.926;4.374;2023-04-05T11:41:45;15.13;;;9.23;;
19998;SDS011;10160;50.926;4.374;2023-04-05T11:44:15;15.20;;;9.45;;
19998;SDS011;10160;50.926;4.374;2023-04-05T11:46:41;18.15;;;8.55;;
19998;SDS011;10160;50.926;4.374;2023-04-05T11:49:07;20.15;;;9.48;;
19998;SDS011;10160;50.926;4.374;2023-04-05T11:51:33;13.60;;;9.07;;
19998;SDS011;10160;50.926;4.374;2023-04-05T11:53:59;14.57;;;9.43;;
19998;SDS011;10160;50.926;4.374;2023-04-05T11:56:25;19.80;;;9.23;;
19998;SDS011;10160;50.926;4.374;2023-04-05T11:58:50;18.95;;;9.00;;
19998;SDS011;10160;50.926;4.374;2023-04-05T12:01:16;15.82;;;8.80;;
19998;SDS011;10160;50.926;4.374;2023-04-05T12:03:42;15.27;;;9.10;;
19998;SDS011;10160;50.926;4.374;2023-04-05T12:06:08;15.85;;;8.82;;
19998;SDS011;10160;50.926;4.374;2023-04-05T12:08:40;16.17;;;9.40;;
19998;SDS011;10160;50.926;4.374;2023-04-05T12:11:13;20.02;;;9.55;;
19998;SDS011;10160;50.926;4.374;2023-04-05T12:13:39;17.42;;;9.05;;
19998;SDS011;10160;50.926;4.374;2023-04-05T12:16:06;27.95;;;9.40;;
19998;SDS011;10160;50.926;4.374;2023-04-05T12:18:33;18.15;;;8.68;;
19998;SDS011;10160;50.926;4.374;2023-04-05T12:21:04;16.75;;;9.13;;
19998;SDS011;10160;50.926;4.374;2023-04-05T12:23:31;20.52;;;8.75;;
19998;SDS011;10160;50.926;4.374;2023-04-05T12:25:58;17.98;;;9.70;;
19998;SDS011;10160;50.926;4.374;2023-04-05T12:28:24;17.27;;;9.50;;
19998;SDS011;10160;50.926;4.374;2023-04-05T12:30:54;19.25;;;10.13;;
19998;SDS011;10160;50.926;4.374;2023-04-05T12:33:27;19.33;;;10.07;;
19998;SDS011;10160;50.926;4.374;2023-04-05T12:36:03;15.45;;;10.00;;
19998;SDS011;10160;50.926;4.374;2023-04-05T12:38:29;20.33;;;9.85;;
19998;SDS011;10160;50.926;4.374;2023-04-05T12:40:58;17.02;;;9.02;;
19998;SDS011;10160;50.926;4.374;2023-04-05T12:43:36;18.73;;;9.27;;
19998;SDS011;10160;50.926;4.374;2023-04-05T12:46:09;16.95;;;8.85;;
19998;SDS011;10160;50.926;4.374;2023-04-05T12:48:36;21.10;;;8.45;;
19998;SDS011;10160;50.926;4.374;2023-04-05T12:51:02;16.42;;;8.80;;
19998;SDS011;10160;50.926;4.374;2023-04-05T12:53:43;17.88;;;10.05;;
19998;SDS011;10160;50.926;4.374;2023-04-05T12:56:11;15.57;;;8.43;;
19998;SDS011;10160;50.926;4.374;2023-04-05T12:58:37;18.80;;;9.27;;
19998;SDS011;10160;50.926;4.374;2023-04-05T13:01:04;18.92;;;9.18;;
19998;SDS011;10160;50.926;4.374;2023-04-05T13:03:30;17.75;;;9.32;;
19998;SDS011;10160;50.926;4.374;2023-04-05T13:05:55;17.58;;;8.90;;
19998;SDS011;10160;50.926;4.374;2023-04-05T13:08:22;17.95;;;9.00;;
19998;SDS011;10160;50.926;4.374;2023-04-05T13:10:48;17.15;;;8.75;;
19998;SDS011;10160;50.926;4.374;2023-04-05T13:13:15;21.17;;;8.60;;
19998;SDS011;10160;50.926;4.374;2023-04-05T13:15:42;16.00;;;9.02;;
19998;SDS011;10160;50.926;4.374;2023-04-05T13:18:08;15.55;;;9.13;;
19998;SDS011;10160;50.926;4.374;2023-04-05T13:20:34;17.85;;;8.50;;
19998;SDS011;10160;50.926;4.374;2023-04-05T13:23:00;22.75;;;8.40;;
19998;SDS011;10160;50.926;4.374;2023-04-05T13:25:26;20.42;;;9.68;;
19998;SDS011;10160;50.926;4.374;2023-04-05T13:27:52;16.67;;;8.98;;
19998;SDS011;10160;50.926;4.374;2023-04-05T13:30:18;16.25;;;8.82;;
19998;SDS011;10160;50.926;4.374;2023-04-05T13:32:44;18.20;;;10.00;;
19998;SDS011;10160;50.926;4.374;2023-04-05T13:35:09;20.15;;;9.05;;
19998;SDS011;10160;50.926;4.374;2023-04-05T13:37:36;19.55;;;9.65;;
19998;SDS011;10160;50.926;4.374;2023-04-05T13:40:02;20.33;;;11.02;;
19998;SDS011;10160;50.926;4.374;2023-04-05T13:42:28;17.10;;;8.93;;
19998;SDS011;10160;50.926;4.374;2023-04-05T13:44:54;17.25;;;8.60;;
19998;SDS011;10160;50.926;4.374;2023-04-05T13:47:19;15.02;;;8.88;;
19998;SDS011;10160;50.926;4.374;2023-04-05T13:49:45;16.92;;;8.73;;
19998;SDS011;10160;50.926;4.374;2023-04-05T13:52:11;19.63;;;9.52;;
19998;SDS011;10160;50.926;4.374;2023-04-05T13:54:36;19.02;;;9.45;;
19998;SDS011;10160;50.926;4.374;2023-04-05T13:57:02;14.57;;;8.50;;
19998;SDS011;10160;50.926;4.374;2023-04-05T13:59:28;16.88;;;9.02;;
19998;SDS011;10160;50.926;4.374;2023-04-05T14:01:54;18.45;;;9.38;;
19998;SDS011;10160;50.926;4.374;2023-04-05T14:04:19;15.77;;;8.82;;
19998;SDS011;10160;50.926;4.374;2023-04-05T14:06:45;16.75;;;9.05;;
19998;SDS011;10160;50.926;4.374;2023-04-05T14:09:11;20.20;;;9.73;;
19998;SDS011;10160;50.926;4.374;2023-04-05T14:11:37;16.48;;;9.27;;
19998;SDS011;10160;50.926;4.374;2023-04-05T14:14:03;18.17;;;10.02;;
19998;SDS011;10160;50.926;4.374;2023-04-05T14:16:28;16.42;;;9.50;;
19998;SDS011;10160;50.926;4.374;2023-04-05T14:18:55;19.27;;;10.40;;
19998;SDS011;10160;50.926;4.374;2023-04-05T14:21:20;16.45;;;9.43;;
19998;SDS011;10160;50.926;4.374;2023-04-05T14:23:47;18.80;;;10.75;;
19998;SDS011;10160;50.926;4.374;2023-04-05T14:26:21;16.15;;;9.30;;
19998;SDS011;10160;50.926;4.374;2023-04-05T14:28:48;17.75;;;9.52;;
19998;SDS011;10160;50.926;4.374;2023-04-05T14:31:13;17.45;;;9.98;;
19998;SDS011;10160;50.926;4.374;2023-04-05T14:33:39;17.70;;;8.68;;
19998;SDS011;10160;50.926;4.374;2023-04-05T14:36:05;18.58;;;9.38;;
19998;SDS011;10160;50.926;4.374;2023-04-05T14:38:31;18.25;;;9.52;;
19998;SDS011;10160;50.926;4.374;2023-04-05T14:40:56;23.13;;;10.07;;
19998;SDS011;10160;50.926;4.374;2023-04-05T14:43:22;23.65;;;10.15;;
19998;SDS011;10160;50.926;4.374;2023-04-05T14:45:49;18.42;;;9.52;;
19998;SDS011;10160;50.926;4.374;2023-04-05T14:48:15;18.10;;;9.57;;
19998;SDS011;10160;50.926;4.374;2023-04-05T14:50:41;19.92;;;9.98;;
19998;SDS011;10160;50.926;4.374;2023-04-05T14:53:07;21.23;;;9.50;;
19998;SDS011;10160;50.926;4.374;2023-04-05T14:55:32;16.77;;;9.50;;
19998;SDS011;10160;50.926;4.374;2023-04-05T14:57:58;18.58;;;9.80;;
19998;SDS011;10160;50.926;4.374;2023-04-05T15:00:24;18.30;;;9.60;;
19998;SDS011;10160;50.926;4.374;2023-04-05T15:02:50;16.85;;;9.20;;
19998;SDS011;10160;50.926;4.374;2023-04-05T15:05:15;16.60;;;9.10;;
19998;SDS011;10160;50.926;4.374;2023-04-05T15:07:42;20.10;;;9.90;;
19998;SDS011;10160;50.926;4.374;2023-04-05T15:10:08;17.35;;;9.18;;
19998;SDS011;10160;50.926;4.374;2023-04-05T15:12:34;20.58;;;10.15;;